PWSweather.com
Personal Weather Stations
Station Observations
KNCGREEN1000
Bell Orchard Drive, Greensboro, NC 27455

Bell Orchard DriveGreensboro, NC 27455

Lat: 36.132, Lon: -79.8

Elevation: 876

Station Type: Acurite Atlas

Http://www.gilhutcheson.com

High Low Average
Temperature 63.3°F17.4°C 59.4°F15.2°C 61.4°F16.3°C
Dew Point 61.9°F16.6°C 58.0°F14.4°C 60.3°F15.7°C
Winds 7.0 mph 11.3 kmh Calm Calm 1.0 mph S1.6 kmh S
Wind Gusts -- -- --
Humidity 99% 90% 96%
Pressure 30.46 in1031.5 mb 30.36 in1028.1 mb -
Precipitation 0.43 in10.9 mm - -
Hour Temp Dew Point Humidity Winds Wind Gusts Pressure Precip Precip Rate Daily Precip Total
12:01 AM 63.3°F17.4°C 60.6°F15.9°C 91% 2.0 mph WSW3.2 kmh WSW -- 30.37 in1028.4 mb 0.00 in0.0 mm 0.00 in0.0 mm 0.00 in0.0 mm
12:06 AM 63.2°F17.3°C 60.4°F15.8°C 91% 3.0 mph SSW4.8 kmh SSW -- 30.37 in1028.4 mb 0.00 in0.0 mm 0.00 in0.0 mm 0.00 in0.0 mm
12:11 AM 63.2°F17.3°C 60.4°F15.8°C 91% 7.0 mph NW11.3 kmh NW -- 30.37 in1028.4 mb 0.00 in0.0 mm 0.00 in0.0 mm 0.00 in0.0 mm
12:16 AM 63.2°F17.3°C 60.4°F15.8°C 91% Calm Calm -- 30.37 in1028.4 mb 0.00 in0.0 mm 0.00 in0.0 mm 0.00 in0.0 mm
12:21 AM 63.2°F17.3°C 60.4°F15.8°C 91% 1.0 mph S1.6 kmh S -- 30.38 in1028.8 mb 0.00 in0.0 mm 0.00 in0.0 mm 0.00 in0.0 mm
12:26 AM 63.0°F17.2°C 60.3°F15.7°C 91% 2.0 mph WSW3.2 kmh WSW -- 30.38 in1028.8 mb 0.00 in0.0 mm 0.00 in0.0 mm 0.00 in0.0 mm
12:31 AM 63.1°F17.3°C 60.1°F15.6°C 90% 1.0 mph S1.6 kmh S -- 30.37 in1028.4 mb 0.00 in0.0 mm 0.00 in0.0 mm 0.00 in0.0 mm
12:36 AM 62.9°F17.2°C 60.0°F15.6°C 90% Calm Calm -- 30.37 in1028.4 mb 0.00 in0.0 mm 0.00 in0.0 mm 0.00 in0.0 mm
12:41 AM 62.6°F17.0°C 59.9°F15.5°C 91% 1.0 mph S1.6 kmh S -- 30.37 in1028.4 mb 0.00 in0.0 mm 0.00 in0.0 mm 0.00 in0.0 mm
12:46 AM 62.5°F16.9°C 59.7°F15.4°C 91% 2.0 mph S3.2 kmh S -- 30.37 in1028.4 mb 0.00 in0.0 mm 0.00 in0.0 mm 0.00 in0.0 mm
12:51 AM 62.4°F16.9°C 59.7°F15.4°C 91% 1.0 mph SSW1.6 kmh SSW -- 30.37 in1028.4 mb 0.00 in0.0 mm 0.00 in0.0 mm 0.00 in0.0 mm
12:56 AM 62.4°F16.9°C 59.7°F15.4°C 91% 2.0 mph S3.2 kmh S -- 30.37 in1028.4 mb 0.00 in0.0 mm 0.00 in0.0 mm 0.00 in0.0 mm
01:01 AM 62.4°F16.9°C 59.7°F15.4°C 91% 1.0 mph SSE1.6 kmh SSE -- 30.37 in1028.4 mb 0.00 in0.0 mm 0.00 in0.0 mm 0.00 in0.0 mm
01:06 AM 62.3°F16.8°C 59.6°F15.3°C 91% 3.0 mph SW4.8 kmh SW -- 30.36 in1028.1 mb 0.00 in0.0 mm 0.00 in0.0 mm 0.00 in0.0 mm
01:11 AM 62.2°F16.8°C 59.6°F15.3°C 91% 2.0 mph WSW3.2 kmh WSW -- 30.37 in1028.4 mb 0.00 in0.0 mm 0.00 in0.0 mm 0.00 in0.0 mm
01:16 AM 62.1°F16.7°C 59.4°F15.2°C 91% 2.0 mph WSW3.2 kmh WSW -- 30.37 in1028.4 mb 0.00 in0.0 mm 0.00 in0.0 mm 0.00 in0.0 mm
01:21 AM 62.1°F16.7°C 59.4°F15.2°C 91% 7.0 mph SW11.3 kmh SW -- 30.36 in1028.1 mb 0.00 in0.0 mm 0.00 in0.0 mm 0.00 in0.0 mm
01:26 AM 62.1°F16.7°C 59.4°F15.2°C 91% Calm Calm -- 30.36 in1028.1 mb 0.00 in0.0 mm 0.00 in0.0 mm 0.00 in0.0 mm
01:31 AM 62.0°F16.7°C 59.4°F15.2°C 91% 2.0 mph S3.2 kmh S -- 30.36 in1028.1 mb 0.00 in0.0 mm 0.00 in0.0 mm 0.00 in0.0 mm
01:36 AM 62.0°F16.7°C 59.4°F15.2°C 91% 4.0 mph WSW6.4 kmh WSW -- 30.37 in1028.4 mb 0.00 in0.0 mm 0.00 in0.0 mm 0.00 in0.0 mm
01:41 AM 61.9°F16.6°C 59.2°F15.1°C 91% 3.0 mph WSW4.8 kmh WSW -- 30.37 in1028.4 mb 0.00 in0.0 mm 0.00 in0.0 mm 0.00 in0.0 mm
01:46 AM 62.0°F16.7°C 59.4°F15.2°C 91% 3.0 mph SSW4.8 kmh SSW -- 30.37 in1028.4 mb 0.00 in0.0 mm 0.00 in0.0 mm 0.00 in0.0 mm
01:51 AM 61.9°F16.6°C 59.2°F15.1°C 91% 4.0 mph W6.4 kmh W -- 30.38 in1028.8 mb 0.00 in0.0 mm 0.00 in0.0 mm 0.00 in0.0 mm
01:56 AM 61.8°F16.6°C 59.2°F15.1°C 91% 3.0 mph WSW4.8 kmh WSW -- 30.37 in1028.4 mb 0.00 in0.0 mm 0.00 in0.0 mm 0.00 in0.0 mm
02:01 AM 61.9°F16.6°C 59.2°F15.1°C 91% 2.0 mph S3.2 kmh S -- 30.37 in1028.4 mb 0.00 in0.0 mm 0.00 in0.0 mm 0.00 in0.0 mm
02:06 AM 62.0°F16.7°C 59.4°F15.2°C 91% 3.0 mph SSW4.8 kmh SSW -- 30.37 in1028.4 mb 0.00 in0.0 mm 0.00 in0.0 mm 0.00 in0.0 mm
02:11 AM 61.9°F16.6°C 59.2°F15.1°C 91% Calm Calm -- 30.37 in1028.4 mb 0.00 in0.0 mm 0.00 in0.0 mm 0.00 in0.0 mm
02:16 AM 61.8°F16.6°C 59.2°F15.1°C 91% 3.0 mph SW4.8 kmh SW -- 30.37 in1028.4 mb 0.00 in0.0 mm 0.00 in0.0 mm 0.00 in0.0 mm
02:21 AM 61.7°F16.5°C 59.0°F15.0°C 91% 1.0 mph SSW1.6 kmh SSW -- 30.37 in1028.4 mb 0.00 in0.0 mm 0.00 in0.0 mm 0.00 in0.0 mm
02:26 AM 61.6°F16.4°C 58.8°F14.9°C 91% 1.0 mph SSE1.6 kmh SSE -- 30.37 in1028.4 mb 0.00 in0.0 mm 0.00 in0.0 mm 0.00 in0.0 mm
02:31 AM 61.5°F16.4°C 58.8°F14.9°C 91% 2.0 mph SW3.2 kmh SW -- 30.36 in1028.1 mb 0.00 in0.0 mm 0.00 in0.0 mm 0.00 in0.0 mm
02:36 AM 61.4°F16.3°C 59.0°F15.0°C 92% 2.0 mph S3.2 kmh S -- 30.36 in1028.1 mb 0.00 in0.0 mm 0.00 in0.0 mm 0.00 in0.0 mm
02:41 AM 61.1°F16.2°C 58.8°F14.9°C 92% Calm Calm -- 30.36 in1028.1 mb 0.00 in0.0 mm 0.00 in0.0 mm 0.00 in0.0 mm
02:46 AM 61.0°F16.1°C 58.6°F14.8°C 92% Calm Calm -- 30.36 in1028.1 mb 0.00 in0.0 mm 0.00 in0.0 mm 0.00 in0.0 mm
02:51 AM 61.0°F16.1°C 58.6°F14.8°C 92% Calm Calm -- 30.37 in1028.4 mb 0.00 in0.0 mm 0.00 in0.0 mm 0.00 in0.0 mm
02:56 AM 61.0°F16.1°C 58.9°F14.9°C 93% 1.0 mph S1.6 kmh S -- 30.37 in1028.4 mb 0.00 in0.0 mm 0.00 in0.0 mm 0.00 in0.0 mm
03:01 AM 61.0°F16.1°C 58.9°F14.9°C 93% Calm Calm -- 30.36 in1028.1 mb 0.00 in0.0 mm 0.00 in0.0 mm 0.00 in0.0 mm
03:06 AM 61.1°F16.2°C 59.1°F15.1°C 93% Calm Calm -- 30.37 in1028.4 mb 0.00 in0.0 mm 0.00 in0.0 mm 0.00 in0.0 mm
03:11 AM 61.0°F16.1°C 58.9°F14.9°C 93% 1.0 mph S1.6 kmh S -- 30.36 in1028.1 mb 0.00 in0.0 mm 0.00 in0.0 mm 0.00 in0.0 mm
03:16 AM 60.9°F16.1°C 58.9°F14.9°C 93% Calm Calm -- 30.37 in1028.4 mb 0.00 in0.0 mm 0.00 in0.0 mm 0.00 in0.0 mm
03:21 AM 60.8°F16.0°C 58.7°F14.8°C 93% Calm Calm -- 30.37 in1028.4 mb 0.00 in0.0 mm 0.00 in0.0 mm 0.00 in0.0 mm
03:26 AM 60.8°F16.0°C 58.7°F14.8°C 93% 1.0 mph SSE1.6 kmh SSE -- 30.37 in1028.4 mb 0.00 in0.0 mm 0.00 in0.0 mm 0.00 in0.0 mm
03:31 AM 60.7°F15.9°C 58.6°F14.8°C 93% Calm Calm -- 30.37 in1028.4 mb 0.00 in0.0 mm 0.00 in0.0 mm 0.00 in0.0 mm
03:36 AM 60.6°F15.9°C 58.6°F14.8°C 93% Calm Calm -- 30.37 in1028.4 mb 0.00 in0.0 mm 0.00 in0.0 mm 0.00 in0.0 mm
03:41 AM 60.5°F15.8°C 58.4°F14.7°C 93% 2.0 mph SSE3.2 kmh SSE -- 30.38 in1028.8 mb 0.00 in0.0 mm 0.00 in0.0 mm 0.00 in0.0 mm
03:46 AM 60.5°F15.8°C 58.7°F14.8°C 94% 1.0 mph SSW1.6 kmh SSW -- 30.38 in1028.8 mb 0.00 in0.0 mm 0.00 in0.0 mm 0.00 in0.0 mm
03:51 AM 60.5°F15.8°C 58.7°F14.8°C 94% 1.0 mph SSW1.6 kmh SSW -- 30.38 in1028.8 mb 0.00 in0.0 mm 0.00 in0.0 mm 0.00 in0.0 mm
03:56 AM 60.3°F15.7°C 58.5°F14.7°C 94% 1.0 mph S1.6 kmh S -- 30.38 in1028.8 mb 0.00 in0.0 mm 0.00 in0.0 mm 0.00 in0.0 mm
04:01 AM 60.3°F15.7°C 58.5°F14.7°C 94% Calm Calm -- 30.38 in1028.8 mb 0.00 in0.0 mm 0.00 in0.0 mm 0.00 in0.0 mm
04:06 AM 60.1°F15.6°C 58.3°F14.6°C 94% 1.0 mph E1.6 kmh E -- 30.37 in1028.4 mb 0.00 in0.0 mm 0.00 in0.0 mm 0.00 in0.0 mm
04:11 AM 59.8°F15.4°C 58.0°F14.4°C 94% Calm Calm -- 30.38 in1028.8 mb 0.00 in0.0 mm 0.00 in0.0 mm 0.00 in0.0 mm
04:16 AM 59.8°F15.4°C 58.0°F14.4°C 94% Calm Calm -- 30.38 in1028.8 mb 0.00 in0.0 mm 0.00 in0.0 mm 0.00 in0.0 mm
04:21 AM 59.9°F15.5°C 58.5°F14.7°C 95% 2.0 mph 3.2 kmh -- 30.38 in1028.8 mb 0.00 in0.0 mm 0.00 in0.0 mm 0.00 in0.0 mm
04:26 AM 59.7°F15.4°C 58.3°F14.6°C 95% 1.0 mph WNW1.6 kmh WNW -- 30.38 in1028.8 mb 0.00 in0.0 mm 0.00 in0.0 mm 0.00 in0.0 mm
04:31 AM 59.8°F15.4°C 58.3°F14.6°C 95% 2.0 mph NE3.2 kmh NE -- 30.37 in1028.4 mb 0.00 in0.0 mm 0.00 in0.0 mm 0.00 in0.0 mm
04:36 AM 59.9°F15.5°C 58.5°F14.7°C 95% 2.0 mph NNW3.2 kmh NNW -- 30.38 in1028.8 mb 0.00 in0.0 mm 0.00 in0.0 mm 0.00 in0.0 mm
04:41 AM 60.1°F15.6°C 58.6°F14.8°C 95% 1.0 mph SSW1.6 kmh SSW -- 30.38 in1028.8 mb 0.00 in0.0 mm 0.00 in0.0 mm 0.00 in0.0 mm
04:46 AM 60.1°F15.6°C 58.6°F14.8°C 95% 3.0 mph W4.8 kmh W -- 30.39 in1029.1 mb 0.00 in0.0 mm 0.00 in0.0 mm 0.00 in0.0 mm
04:51 AM 60.2°F15.7°C 58.8°F14.9°C 95% 2.0 mph SSW3.2 kmh SSW -- 30.38 in1028.8 mb 0.00 in0.0 mm 0.00 in0.0 mm 0.00 in0.0 mm
04:56 AM 60.4°F15.8°C 59.0°F15.0°C 95% Calm Calm -- 30.38 in1028.8 mb 0.00 in0.0 mm 0.00 in0.0 mm 0.00 in0.0 mm
05:01 AM 60.5°F15.8°C 59.0°F15.0°C 95% 1.0 mph S1.6 kmh S -- 30.39 in1029.1 mb 0.00 in0.0 mm 0.00 in0.0 mm 0.00 in0.0 mm
05:06 AM 60.4°F15.8°C 59.0°F15.0°C 95% Calm Calm -- 30.39 in1029.1 mb 0.00 in0.0 mm 0.00 in0.0 mm 0.00 in0.0 mm
05:11 AM 60.3°F15.7°C 58.8°F14.9°C 95% Calm Calm -- 30.39 in1029.1 mb 0.00 in0.0 mm 0.00 in0.0 mm 0.00 in0.0 mm
05:16 AM 60.2°F15.7°C 58.8°F14.9°C 95% Calm Calm -- 30.38 in1028.8 mb 0.00 in0.0 mm 0.00 in0.0 mm 0.00 in0.0 mm
05:21 AM 60.2°F15.7°C 58.8°F14.9°C 95% Calm Calm -- 30.38 in1028.8 mb 0.00 in0.0 mm 0.00 in0.0 mm 0.00 in0.0 mm
05:26 AM 60.0°F15.6°C 58.6°F14.8°C 95% 1.0 mph E1.6 kmh E -- 30.38 in1028.8 mb 0.00 in0.0 mm 0.00 in0.0 mm 0.00 in0.0 mm
05:31 AM 59.8°F15.4°C 58.3°F14.6°C 95% Calm Calm -- 30.37 in1028.4 mb 0.00 in0.0 mm 0.00 in0.0 mm 0.00 in0.0 mm
05:36 AM 59.8°F15.4°C 58.3°F14.6°C 95% Calm Calm -- 30.37 in1028.4 mb 0.00 in0.0 mm 0.00 in0.0 mm 0.00 in0.0 mm
05:41 AM 59.6°F15.3°C 58.1°F14.5°C 95% Calm Calm -- 30.37 in1028.4 mb 0.00 in0.0 mm 0.00 in0.0 mm 0.00 in0.0 mm
05:46 AM 59.6°F15.3°C 58.4°F14.7°C 96% Calm Calm -- 30.37 in1028.4 mb 0.00 in0.0 mm 0.00 in0.0 mm 0.00 in0.0 mm
05:51 AM 59.7°F15.4°C 58.6°F14.8°C 96% Calm Calm -- 30.38 in1028.8 mb 0.00 in0.0 mm 0.00 in0.0 mm 0.00 in0.0 mm
05:56 AM 59.7°F15.4°C 58.6°F14.8°C 96% Calm Calm -- 30.38 in1028.8 mb 0.00 in0.0 mm 0.00 in0.0 mm 0.00 in0.0 mm
06:01 AM 59.6°F15.3°C 58.4°F14.7°C 96% 2.0 mph SE3.2 kmh SE -- 30.40 in1029.5 mb 0.00 in0.0 mm 0.00 in0.0 mm 0.00 in0.0 mm
06:06 AM 59.5°F15.3°C 58.4°F14.7°C 96% Calm Calm -- 30.40 in1029.5 mb 0.00 in0.0 mm 0.00 in0.0 mm 0.00 in0.0 mm
06:11 AM 59.6°F15.3°C 58.4°F14.7°C 96% 2.0 mph SE3.2 kmh SE -- 30.40 in1029.5 mb 0.01 in0.3 mm 0.12 in3.0 mm 0.01 in0.3 mm
06:16 AM 59.7°F15.4°C 58.9°F14.9°C 97% 2.0 mph SW3.2 kmh SW -- 30.39 in1029.1 mb 0.02 in0.5 mm 0.12 in3.0 mm 0.02 in0.5 mm
06:21 AM 59.8°F15.4°C 58.9°F14.9°C 97% 1.0 mph S1.6 kmh S -- 30.40 in1029.5 mb 0.02 in0.5 mm 0.00 in0.0 mm 0.02 in0.5 mm
06:26 AM 59.8°F15.4°C 58.9°F14.9°C 97% Calm Calm -- 30.40 in1029.5 mb 0.02 in0.5 mm 0.00 in0.0 mm 0.02 in0.5 mm
06:31 AM 59.7°F15.4°C 58.9°F14.9°C 97% Calm Calm -- 30.40 in1029.5 mb 0.02 in0.5 mm 0.00 in0.0 mm 0.02 in0.5 mm
06:36 AM 59.7°F15.4°C 58.9°F14.9°C 97% Calm Calm -- 30.40 in1029.5 mb 0.02 in0.5 mm 0.00 in0.0 mm 0.02 in0.5 mm
06:41 AM 59.7°F15.4°C 58.9°F14.9°C 97% 2.0 mph WNW3.2 kmh WNW -- 30.40 in1029.5 mb 0.02 in0.5 mm 0.00 in0.0 mm 0.02 in0.5 mm
06:46 AM 59.7°F15.4°C 58.9°F14.9°C 97% Calm Calm -- 30.41 in1029.8 mb 0.02 in0.5 mm 0.00 in0.0 mm 0.02 in0.5 mm
06:51 AM 59.7°F15.4°C 58.9°F14.9°C 97% Calm Calm -- 30.40 in1029.5 mb 0.02 in0.5 mm 0.00 in0.0 mm 0.02 in0.5 mm
06:56 AM 59.8°F15.4°C 58.9°F14.9°C 97% Calm Calm -- 30.40 in1029.5 mb 0.02 in0.5 mm 0.00 in0.0 mm 0.02 in0.5 mm
07:01 AM 59.6°F15.3°C 58.7°F14.8°C 97% Calm Calm -- 30.39 in1029.1 mb 0.02 in0.5 mm 0.00 in0.0 mm 0.02 in0.5 mm
07:06 AM 59.5°F15.3°C 58.7°F14.8°C 97% Calm Calm -- 30.39 in1029.1 mb 0.00 in0.0 mm 0.00 in0.0 mm 0.02 in0.5 mm
07:11 AM 59.6°F15.3°C 58.7°F14.8°C 97% Calm Calm -- 30.40 in1029.5 mb 0.00 in0.0 mm 0.00 in0.0 mm 0.02 in0.5 mm
07:16 AM 59.7°F15.4°C 58.9°F14.9°C 97% Calm Calm -- 30.40 in1029.5 mb 0.00 in0.0 mm 0.00 in0.0 mm 0.02 in0.5 mm
07:21 AM 59.6°F15.3°C 58.7°F14.8°C 97% Calm Calm -- 30.40 in1029.5 mb 0.00 in0.0 mm 0.00 in0.0 mm 0.02 in0.5 mm
07:26 AM 59.5°F15.3°C 58.7°F14.8°C 97% Calm Calm -- 30.40 in1029.5 mb 0.00 in0.0 mm 0.00 in0.0 mm 0.02 in0.5 mm
07:36 AM 59.4°F15.2°C 58.5°F14.7°C 97% Calm Calm -- 30.41 in1029.8 mb 0.00 in0.0 mm 0.00 in0.0 mm 0.02 in0.5 mm
07:41 AM 59.4°F15.2°C 58.5°F14.7°C 97% Calm Calm -- 30.41 in1029.8 mb 0.00 in0.0 mm 0.00 in0.0 mm 0.02 in0.5 mm
07:46 AM 59.4°F15.2°C 58.5°F14.7°C 97% Calm Calm -- 30.41 in1029.8 mb 0.00 in0.0 mm 0.00 in0.0 mm 0.02 in0.5 mm
07:51 AM 59.5°F15.3°C 58.7°F14.8°C 97% Calm Calm -- 30.41 in1029.8 mb 0.00 in0.0 mm 0.00 in0.0 mm 0.02 in0.5 mm
07:56 AM 59.6°F15.3°C 58.7°F14.8°C 97% Calm Calm -- 30.41 in1029.8 mb 0.00 in0.0 mm 0.00 in0.0 mm 0.02 in0.5 mm
08:01 AM 59.7°F15.4°C 59.1°F15.1°C 98% 1.0 mph S1.6 kmh S -- 30.42 in1030.1 mb 0.00 in0.0 mm 0.00 in0.0 mm 0.02 in0.5 mm
08:06 AM 59.9°F15.5°C 59.3°F15.2°C 98% Calm Calm -- 30.42 in1030.1 mb 0.00 in0.0 mm 0.00 in0.0 mm 0.02 in0.5 mm
08:11 AM 59.9°F15.5°C 59.3°F15.2°C 98% 3.0 mph S4.8 kmh S -- 30.42 in1030.1 mb 0.02 in0.5 mm 0.24 in6.1 mm 0.04 in1.0 mm
08:16 AM 59.9°F15.5°C 59.3°F15.2°C 98% 2.0 mph SW3.2 kmh SW -- 30.42 in1030.1 mb 0.03 in0.8 mm 0.12 in3.0 mm 0.05 in1.3 mm
08:21 AM 59.9°F15.5°C 59.3°F15.2°C 98% Calm Calm -- 30.43 in1030.5 mb 0.04 in1.0 mm 0.12 in3.0 mm 0.06 in1.5 mm
08:26 AM 59.9°F15.5°C 59.3°F15.2°C 98% Calm Calm -- 30.42 in1030.1 mb 0.04 in1.0 mm 0.00 in0.0 mm 0.06 in1.5 mm
08:36 AM 59.9°F15.5°C 59.3°F15.2°C 98% 2.0 mph S3.2 kmh S -- 30.43 in1030.5 mb 0.04 in1.0 mm 0.00 in0.0 mm 0.06 in1.5 mm
08:41 AM 60.0°F15.6°C 59.5°F15.3°C 98% 1.0 mph S1.6 kmh S -- 30.43 in1030.5 mb 0.04 in1.0 mm 0.00 in0.0 mm 0.06 in1.5 mm
08:46 AM 60.0°F15.6°C 59.5°F15.3°C 98% Calm Calm -- 30.43 in1030.5 mb 0.04 in1.0 mm 0.00 in0.0 mm 0.06 in1.5 mm
08:51 AM 60.0°F15.6°C 59.5°F15.3°C 98% 1.0 mph S1.6 kmh S -- 30.44 in1030.8 mb 0.04 in1.0 mm 0.00 in0.0 mm 0.06 in1.5 mm
08:56 AM 60.0°F15.6°C 59.5°F15.3°C 98% 1.0 mph S1.6 kmh S -- 30.43 in1030.5 mb 0.04 in1.0 mm 0.00 in0.0 mm 0.06 in1.5 mm
09:01 AM 60.0°F15.6°C 59.5°F15.3°C 98% 1.0 mph SE1.6 kmh SE -- 30.44 in1030.8 mb 0.04 in1.0 mm 0.00 in0.0 mm 0.06 in1.5 mm
09:06 AM 60.0°F15.6°C 59.5°F15.3°C 98% Calm Calm -- 30.44 in1030.8 mb 0.01 in0.3 mm 0.00 in0.0 mm 0.06 in1.5 mm
09:11 AM 60.0°F15.6°C 59.5°F15.3°C 98% Calm Calm -- 30.44 in1030.8 mb 0.01 in0.3 mm 0.00 in0.0 mm 0.06 in1.5 mm
09:16 AM 60.0°F15.6°C 59.5°F15.3°C 98% 3.0 mph WSW4.8 kmh WSW -- 30.45 in1031.2 mb 0.00 in0.0 mm 0.00 in0.0 mm 0.06 in1.5 mm
09:21 AM 60.0°F15.6°C 59.5°F15.3°C 98% Calm Calm -- 30.45 in1031.2 mb 0.00 in0.0 mm 0.00 in0.0 mm 0.06 in1.5 mm
09:26 AM 59.9°F15.5°C 59.3°F15.2°C 98% Calm Calm -- 30.46 in1031.5 mb 0.16 in4.1 mm 1.92 in48.8 mm 0.22 in5.6 mm
09:31 AM 60.0°F15.6°C 59.5°F15.3°C 98% Calm Calm -- 30.44 in1030.8 mb 0.17 in4.3 mm 0.12 in3.0 mm 0.23 in5.8 mm
09:36 AM 60.0°F15.6°C 59.5°F15.3°C 98% 2.0 mph SSW3.2 kmh SSW -- 30.44 in1030.8 mb 0.17 in4.3 mm 0.00 in0.0 mm 0.23 in5.8 mm
09:41 AM 60.0°F15.6°C 59.5°F15.3°C 98% Calm Calm -- 30.44 in1030.8 mb 0.17 in4.3 mm 0.00 in0.0 mm 0.23 in5.8 mm
09:46 AM 60.1°F15.6°C 59.5°F15.3°C 98% Calm Calm -- 30.43 in1030.5 mb 0.17 in4.3 mm 0.00 in0.0 mm 0.23 in5.8 mm
09:51 AM 60.3°F15.7°C 59.7°F15.4°C 98% Calm Calm -- 30.43 in1030.5 mb 0.17 in4.3 mm 0.00 in0.0 mm 0.23 in5.8 mm
09:56 AM 60.4°F15.8°C 59.9°F15.5°C 98% Calm Calm -- 30.44 in1030.8 mb 0.18 in4.6 mm 0.12 in3.0 mm 0.24 in6.1 mm
10:01 AM 60.5°F15.8°C 59.9°F15.5°C 98% 2.0 mph S3.2 kmh S -- 30.44 in1030.8 mb 0.18 in4.6 mm 0.00 in0.0 mm 0.24 in6.1 mm
10:06 AM 60.6°F15.9°C 60.0°F15.6°C 98% 2.0 mph SSW3.2 kmh SSW -- 30.44 in1030.8 mb 0.18 in4.6 mm 0.00 in0.0 mm 0.24 in6.1 mm
10:11 AM 60.7°F15.9°C 60.0°F15.6°C 98% 2.0 mph S3.2 kmh S -- 30.43 in1030.5 mb 0.18 in4.6 mm 0.00 in0.0 mm 0.24 in6.1 mm
10:16 AM 60.7°F15.9°C 60.0°F15.6°C 98% 3.0 mph S4.8 kmh S -- 30.43 in1030.5 mb 0.04 in1.0 mm 0.00 in0.0 mm 0.24 in6.1 mm
10:21 AM 60.9°F16.1°C 60.4°F15.8°C 98% 4.0 mph S6.4 kmh S -- 30.43 in1030.5 mb 0.04 in1.0 mm 0.00 in0.0 mm 0.24 in6.1 mm
10:26 AM 60.9°F16.1°C 60.4°F15.8°C 98% Calm Calm -- 30.44 in1030.8 mb 0.01 in0.3 mm 0.00 in0.0 mm 0.24 in6.1 mm
10:31 AM 61.0°F16.1°C 60.4°F15.8°C 98% 2.0 mph S3.2 kmh S -- 30.43 in1030.5 mb 0.01 in0.3 mm 0.00 in0.0 mm 0.24 in6.1 mm
10:36 AM 61.3°F16.3°C 60.8°F16.0°C 98% Calm Calm -- 30.44 in1030.8 mb 0.01 in0.3 mm 0.00 in0.0 mm 0.24 in6.1 mm
10:41 AM 61.3°F16.3°C 60.8°F16.0°C 98% 2.0 mph SW3.2 kmh SW -- 30.44 in1030.8 mb 0.01 in0.3 mm 0.00 in0.0 mm 0.24 in6.1 mm
10:46 AM 61.4°F16.3°C 60.8°F16.0°C 98% 2.0 mph SW3.2 kmh SW -- 30.45 in1031.2 mb 0.00 in0.0 mm 0.00 in0.0 mm 0.24 in6.1 mm
10:51 AM 61.5°F16.4°C 60.9°F16.1°C 98% 2.0 mph S3.2 kmh S -- 30.45 in1031.2 mb 0.00 in0.0 mm 0.00 in0.0 mm 0.24 in6.1 mm
10:56 AM 61.6°F16.4°C 60.7°F15.9°C 97% 1.0 mph S1.6 kmh S -- 30.45 in1031.2 mb 0.00 in0.0 mm 0.00 in0.0 mm 0.24 in6.1 mm
11:01 AM 61.6°F16.4°C 60.7°F15.9°C 97% 2.0 mph S3.2 kmh S -- 30.45 in1031.2 mb 0.00 in0.0 mm 0.00 in0.0 mm 0.24 in6.1 mm
11:06 AM 61.5°F16.4°C 60.7°F15.9°C 97% 2.0 mph S3.2 kmh S -- 30.45 in1031.2 mb 0.00 in0.0 mm 0.00 in0.0 mm 0.24 in6.1 mm
11:11 AM 61.4°F16.3°C 60.5°F15.8°C 97% 2.0 mph S3.2 kmh S -- 30.45 in1031.2 mb 0.00 in0.0 mm 0.00 in0.0 mm 0.24 in6.1 mm
11:16 AM 61.3°F16.3°C 60.5°F15.8°C 97% Calm Calm -- 30.45 in1031.2 mb 0.01 in0.3 mm 0.12 in3.0 mm 0.25 in6.4 mm
11:21 AM 61.3°F16.3°C 60.5°F15.8°C 97% 4.0 mph SSE6.4 kmh SSE -- 30.45 in1031.2 mb 0.01 in0.3 mm 0.00 in0.0 mm 0.25 in6.4 mm
11:26 AM 61.3°F16.3°C 60.5°F15.8°C 97% 2.0 mph SSW3.2 kmh SSW -- 30.43 in1030.5 mb 0.02 in0.5 mm 0.12 in3.0 mm 0.26 in6.6 mm
11:31 AM 61.2°F16.2°C 60.3°F15.7°C 97% 3.0 mph SW4.8 kmh SW -- 30.45 in1031.2 mb 0.03 in0.8 mm 0.12 in3.0 mm 0.27 in6.9 mm
11:36 AM 61.3°F16.3°C 60.5°F15.8°C 97% 3.0 mph S4.8 kmh S -- 30.45 in1031.2 mb 0.03 in0.8 mm 0.00 in0.0 mm 0.27 in6.9 mm
11:41 AM 61.2°F16.2°C 60.3°F15.7°C 97% 1.0 mph S1.6 kmh S -- 30.43 in1030.5 mb 0.04 in1.0 mm 0.12 in3.0 mm 0.28 in7.1 mm
11:46 AM 61.3°F16.3°C 60.5°F15.8°C 97% 1.0 mph SSE1.6 kmh SSE -- 30.44 in1030.8 mb 0.05 in1.3 mm 0.12 in3.0 mm 0.29 in7.4 mm
11:51 AM 61.4°F16.3°C 60.5°F15.8°C 97% 2.0 mph SSW3.2 kmh SSW -- 30.43 in1030.5 mb 0.06 in1.5 mm 0.12 in3.0 mm 0.30 in7.6 mm
11:56 AM 61.4°F16.3°C 60.5°F15.8°C 97% 1.0 mph SSW1.6 kmh SSW -- 30.44 in1030.8 mb 0.06 in1.5 mm 0.00 in0.0 mm 0.30 in7.6 mm
12:01 PM 61.6°F16.4°C 60.7°F15.9°C 97% Calm Calm -- 30.43 in1030.5 mb 0.06 in1.5 mm 0.00 in0.0 mm 0.30 in7.6 mm
12:06 PM 61.7°F16.5°C 60.8°F16.0°C 97% 1.0 mph SSW1.6 kmh SSW -- 30.43 in1030.5 mb 0.06 in1.5 mm 0.00 in0.0 mm 0.31 in7.9 mm
12:11 PM 61.8°F16.6°C 61.0°F16.1°C 97% 1.0 mph SSE1.6 kmh SSE -- 30.42 in1030.1 mb 0.06 in1.5 mm 0.00 in0.0 mm 0.31 in7.9 mm
12:16 PM 61.9°F16.6°C 61.0°F16.1°C 97% 4.0 mph W6.4 kmh W -- 30.41 in1029.8 mb 0.05 in1.3 mm 0.00 in0.0 mm 0.31 in7.9 mm
12:21 PM 62.0°F16.7°C 61.2°F16.2°C 97% 1.0 mph NE1.6 kmh NE -- 30.41 in1029.8 mb 0.05 in1.3 mm 0.00 in0.0 mm 0.31 in7.9 mm
12:26 PM 61.9°F16.6°C 61.0°F16.1°C 97% 2.0 mph S3.2 kmh S -- 30.41 in1029.8 mb 0.04 in1.0 mm 0.00 in0.0 mm 0.31 in7.9 mm
12:31 PM 62.0°F16.7°C 61.2°F16.2°C 97% 3.0 mph SW4.8 kmh SW -- 30.41 in1029.8 mb 0.04 in1.0 mm 0.00 in0.0 mm 0.31 in7.9 mm
12:36 PM 62.0°F16.7°C 61.2°F16.2°C 97% 2.0 mph SW3.2 kmh SW -- 30.40 in1029.5 mb 0.02 in0.5 mm 0.00 in0.0 mm 0.31 in7.9 mm
12:41 PM 62.0°F16.7°C 61.2°F16.2°C 97% 1.0 mph SW1.6 kmh SW -- 30.41 in1029.8 mb 0.02 in0.5 mm 0.00 in0.0 mm 0.31 in7.9 mm
12:46 PM 62.1°F16.7°C 60.9°F16.1°C 96% Calm Calm -- 30.42 in1030.1 mb 0.01 in0.3 mm 0.00 in0.0 mm 0.31 in7.9 mm
12:51 PM 62.0°F16.7°C 60.9°F16.1°C 96% 2.0 mph S3.2 kmh S -- 30.41 in1029.8 mb 0.03 in0.8 mm 0.24 in6.1 mm 0.33 in8.4 mm
12:56 PM 62.1°F16.7°C 60.9°F16.1°C 96% 2.0 mph N3.2 kmh N -- 30.40 in1029.5 mb 0.03 in0.8 mm 0.00 in0.0 mm 0.34 in8.6 mm
01:01 PM 62.1°F16.7°C 60.9°F16.1°C 96% 3.0 mph WSW4.8 kmh WSW -- 30.40 in1029.5 mb 0.04 in1.0 mm 0.01 in0.3 mm 0.35 in8.9 mm
01:06 PM 61.9°F16.6°C 60.7°F15.9°C 96% 3.0 mph S4.8 kmh S -- 30.41 in1029.8 mb 0.04 in1.0 mm 0.00 in0.0 mm 0.35 in8.9 mm
01:11 PM 62.0°F16.7°C 60.9°F16.1°C 96% 1.0 mph S1.6 kmh S -- 30.40 in1029.5 mb 0.04 in1.0 mm 0.00 in0.0 mm 0.35 in8.9 mm
01:16 PM 62.2°F16.8°C 61.1°F16.2°C 96% 2.0 mph S3.2 kmh S -- 30.40 in1029.5 mb 0.04 in1.0 mm 0.00 in0.0 mm 0.35 in8.9 mm
01:21 PM 62.3°F16.8°C 61.1°F16.2°C 96% 2.0 mph S3.2 kmh S -- 30.40 in1029.5 mb 0.04 in1.0 mm 0.00 in0.0 mm 0.35 in8.9 mm
01:26 PM 62.3°F16.8°C 61.1°F16.2°C 96% 1.0 mph SSE1.6 kmh SSE -- 30.40 in1029.5 mb 0.04 in1.0 mm 0.00 in0.0 mm 0.35 in8.9 mm
01:31 PM 62.3°F16.8°C 61.1°F16.2°C 96% Calm Calm -- 30.40 in1029.5 mb 0.05 in1.3 mm 0.12 in3.0 mm 0.36 in9.1 mm
01:36 PM 62.3°F16.8°C 61.1°F16.2°C 96% 2.0 mph S3.2 kmh S -- 30.40 in1029.5 mb 0.05 in1.3 mm 0.00 in0.0 mm 0.36 in9.1 mm
01:41 PM 62.3°F16.8°C 61.1°F16.2°C 96% Calm Calm -- 30.39 in1029.1 mb 0.05 in1.3 mm 0.00 in0.0 mm 0.36 in9.1 mm
01:46 PM 62.4°F16.9°C 61.3°F16.3°C 96% 3.0 mph S4.8 kmh S -- 30.39 in1029.1 mb 0.02 in0.5 mm 0.00 in0.0 mm 0.36 in9.1 mm
01:51 PM 62.5°F16.9°C 61.3°F16.3°C 96% 1.0 mph S1.6 kmh S -- 30.40 in1029.5 mb 0.02 in0.5 mm 0.00 in0.0 mm 0.36 in9.1 mm
01:56 PM 62.8°F17.1°C 61.6°F16.4°C 96% Calm Calm -- 30.39 in1029.1 mb 0.01 in0.3 mm 0.00 in0.0 mm 0.36 in9.1 mm
02:01 PM 62.8°F17.1°C 61.6°F16.4°C 96% 2.0 mph SSE3.2 kmh SSE -- 30.39 in1029.1 mb 0.01 in0.3 mm 0.00 in0.0 mm 0.36 in9.1 mm
02:06 PM 62.9°F17.2°C 61.8°F16.6°C 96% 2.0 mph SSW3.2 kmh SSW -- 30.38 in1028.8 mb 0.01 in0.3 mm 0.00 in0.0 mm 0.36 in9.1 mm
02:11 PM 62.9°F17.2°C 61.8°F16.6°C 96% Calm Calm -- 30.39 in1029.1 mb 0.01 in0.3 mm 0.00 in0.0 mm 0.36 in9.1 mm
02:16 PM 62.9°F17.2°C 61.8°F16.6°C 96% Calm Calm -- 30.38 in1028.8 mb 0.01 in0.3 mm 0.00 in0.0 mm 0.36 in9.1 mm
02:21 PM 62.8°F17.1°C 61.6°F16.4°C 96% 2.0 mph SSW3.2 kmh SSW -- 30.38 in1028.8 mb 0.01 in0.3 mm 0.00 in0.0 mm 0.36 in9.1 mm
02:26 PM 62.7°F17.1°C 61.6°F16.4°C 96% 2.0 mph WSW3.2 kmh WSW -- 30.38 in1028.8 mb 0.00 in0.0 mm 0.00 in0.0 mm 0.36 in9.1 mm
02:31 PM 62.7°F17.1°C 61.6°F16.4°C 96% 2.0 mph SSW3.2 kmh SSW -- 30.38 in1028.8 mb 0.00 in0.0 mm 0.00 in0.0 mm 0.36 in9.1 mm
02:36 PM 62.6°F17.0°C 61.4°F16.3°C 96% 1.0 mph SSE1.6 kmh SSE -- 30.38 in1028.8 mb 0.00 in0.0 mm 0.00 in0.0 mm 0.36 in9.1 mm
02:41 PM 62.6°F17.0°C 61.4°F16.3°C 96% 6.0 mph SSW9.7 kmh SSW -- 30.38 in1028.8 mb 0.01 in0.3 mm 0.12 in3.0 mm 0.37 in9.4 mm
02:46 PM 62.5°F16.9°C 61.3°F16.3°C 96% 2.0 mph SSW3.2 kmh SSW -- 30.39 in1029.1 mb 0.01 in0.3 mm 0.00 in0.0 mm 0.37 in9.4 mm
02:51 PM 62.5°F16.9°C 61.3°F16.3°C 96% 5.0 mph S8.0 kmh S -- 30.38 in1028.8 mb 0.02 in0.5 mm 0.12 in3.0 mm 0.38 in9.7 mm
02:56 PM 62.4°F16.9°C 61.3°F16.3°C 96% 4.0 mph S6.4 kmh S -- 30.38 in1028.8 mb 0.02 in0.5 mm 0.00 in0.0 mm 0.38 in9.7 mm
03:01 PM 62.4°F16.9°C 61.3°F16.3°C 96% 6.0 mph S9.7 kmh S -- 30.37 in1028.4 mb 0.03 in0.8 mm 0.01 in0.3 mm 0.39 in9.9 mm
03:06 PM 62.3°F16.8°C 61.1°F16.2°C 96% 4.0 mph SSW6.4 kmh SSW -- 30.36 in1028.1 mb 0.03 in0.8 mm 0.00 in0.0 mm 0.39 in9.9 mm
03:11 PM 62.4°F16.9°C 61.3°F16.3°C 96% 2.0 mph NW3.2 kmh NW -- 30.36 in1028.1 mb 0.04 in1.0 mm 0.12 in3.0 mm 0.40 in10.2 mm
03:16 PM 62.4°F16.9°C 61.3°F16.3°C 96% 2.0 mph S3.2 kmh S -- 30.37 in1028.4 mb 0.04 in1.0 mm 0.00 in0.0 mm 0.40 in10.2 mm
03:21 PM 62.4°F16.9°C 61.5°F16.4°C 97% 2.0 mph S3.2 kmh S -- 30.36 in1028.1 mb 0.04 in1.0 mm 0.00 in0.0 mm 0.40 in10.2 mm
03:26 PM 62.5°F16.9°C 61.5°F16.4°C 97% Calm Calm -- 30.36 in1028.1 mb 0.04 in1.0 mm 0.00 in0.0 mm 0.40 in10.2 mm
03:31 PM 62.6°F17.0°C 61.7°F16.5°C 97% Calm Calm -- 30.36 in1028.1 mb 0.04 in1.0 mm 0.00 in0.0 mm 0.40 in10.2 mm
03:36 PM 62.6°F17.0°C 61.7°F16.5°C 97% 3.0 mph SSE4.8 kmh SSE -- 30.36 in1028.1 mb 0.03 in0.8 mm 0.00 in0.0 mm 0.40 in10.2 mm
03:41 PM 62.6°F17.0°C 61.7°F16.5°C 97% 2.0 mph S3.2 kmh S -- 30.36 in1028.1 mb 0.03 in0.8 mm 0.00 in0.0 mm 0.40 in10.2 mm
03:46 PM 62.8°F17.1°C 61.9°F16.6°C 97% Calm Calm -- 30.36 in1028.1 mb 0.02 in0.5 mm 0.00 in0.0 mm 0.40 in10.2 mm
03:51 PM 62.8°F17.1°C 61.9°F16.6°C 97% 3.0 mph N4.8 kmh N -- 30.36 in1028.1 mb 0.02 in0.5 mm 0.00 in0.0 mm 0.40 in10.2 mm
03:56 PM 62.7°F17.1°C 61.9°F16.6°C 97% 2.0 mph ESE3.2 kmh ESE -- 30.37 in1028.4 mb 0.01 in0.3 mm 0.00 in0.0 mm 0.40 in10.2 mm
04:01 PM 62.6°F17.0°C 61.4°F16.3°C 96% Calm Calm -- 30.36 in1028.1 mb 0.01 in0.3 mm 0.00 in0.0 mm 0.40 in10.2 mm
04:06 PM 62.8°F17.1°C 61.9°F16.6°C 97% 3.0 mph SW4.8 kmh SW -- 30.37 in1028.4 mb 0.00 in0.0 mm 0.00 in0.0 mm 0.40 in10.2 mm
04:11 PM 62.7°F17.1°C 61.9°F16.6°C 97% 1.0 mph WSW1.6 kmh WSW -- 30.36 in1028.1 mb 0.00 in0.0 mm 0.00 in0.0 mm 0.40 in10.2 mm
04:16 PM 62.7°F17.1°C 61.9°F16.6°C 97% Calm Calm -- 30.36 in1028.1 mb 0.00 in0.0 mm 0.00 in0.0 mm 0.40 in10.2 mm
04:21 PM 62.6°F17.0°C 61.7°F16.5°C 97% 2.0 mph S3.2 kmh S -- 30.37 in1028.4 mb 0.00 in0.0 mm 0.00 in0.0 mm 0.40 in10.2 mm
04:26 PM 62.6°F17.0°C 61.7°F16.5°C 97% Calm Calm -- 30.37 in1028.4 mb 0.00 in0.0 mm 0.00 in0.0 mm 0.40 in10.2 mm
04:31 PM 62.4°F16.9°C 61.3°F16.3°C 96% Calm Calm -- 30.37 in1028.4 mb 0.00 in0.0 mm 0.00 in0.0 mm 0.40 in10.2 mm
04:36 PM 62.4°F16.9°C 61.3°F16.3°C 96% 1.0 mph S1.6 kmh S -- 30.37 in1028.4 mb 0.00 in0.0 mm 0.00 in0.0 mm 0.40 in10.2 mm
04:41 PM 62.3°F16.8°C 61.1°F16.2°C 96% 2.0 mph W3.2 kmh W -- 30.37 in1028.4 mb 0.00 in0.0 mm 0.00 in0.0 mm 0.40 in10.2 mm
04:46 PM 62.2°F16.8°C 61.1°F16.2°C 96% Calm Calm -- 30.38 in1028.8 mb 0.00 in0.0 mm 0.00 in0.0 mm 0.40 in10.2 mm
04:51 PM 62.1°F16.7°C 60.9°F16.1°C 96% Calm Calm -- 30.37 in1028.4 mb 0.00 in0.0 mm 0.00 in0.0 mm 0.40 in10.2 mm
04:56 PM 62.0°F16.7°C 60.9°F16.1°C 96% 1.0 mph S1.6 kmh S -- 30.38 in1028.8 mb 0.00 in0.0 mm 0.00 in0.0 mm 0.40 in10.2 mm
05:01 PM 62.0°F16.7°C 60.9°F16.1°C 96% 3.0 mph SW4.8 kmh SW -- 30.38 in1028.8 mb 0.00 in0.0 mm 0.00 in0.0 mm 0.40 in10.2 mm
05:06 PM 62.0°F16.7°C 60.9°F16.1°C 96% Calm Calm -- 30.38 in1028.8 mb 0.00 in0.0 mm 0.00 in0.0 mm 0.40 in10.2 mm
05:11 PM 62.0°F16.7°C 60.9°F16.1°C 96% Calm Calm -- 30.38 in1028.8 mb 0.00 in0.0 mm 0.00 in0.0 mm 0.40 in10.2 mm
05:16 PM 61.9°F16.6°C 60.7°F15.9°C 96% 2.0 mph S3.2 kmh S -- 30.38 in1028.8 mb 0.00 in0.0 mm 0.00 in0.0 mm 0.40 in10.2 mm
05:21 PM 61.8°F16.6°C 60.7°F15.9°C 96% Calm Calm -- 30.38 in1028.8 mb 0.00 in0.0 mm 0.00 in0.0 mm 0.40 in10.2 mm
05:26 PM 61.9°F16.6°C 60.7°F15.9°C 96% Calm Calm -- 30.38 in1028.8 mb 0.00 in0.0 mm 0.00 in0.0 mm 0.40 in10.2 mm
05:31 PM 61.8°F16.6°C 61.0°F16.1°C 97% 3.0 mph SSW4.8 kmh SSW -- 30.39 in1029.1 mb 0.00 in0.0 mm 0.00 in0.0 mm 0.40 in10.2 mm
05:36 PM 61.8°F16.6°C 61.0°F16.1°C 97% 1.0 mph S1.6 kmh S -- 30.39 in1029.1 mb 0.00 in0.0 mm 0.00 in0.0 mm 0.40 in10.2 mm
05:41 PM 61.7°F16.5°C 60.8°F16.0°C 97% Calm Calm -- 30.40 in1029.5 mb 0.00 in0.0 mm 0.00 in0.0 mm 0.40 in10.2 mm
05:46 PM 61.6°F16.4°C 60.7°F15.9°C 97% 1.0 mph S1.6 kmh S -- 30.40 in1029.5 mb 0.00 in0.0 mm 0.00 in0.0 mm 0.40 in10.2 mm
05:51 PM 61.7°F16.5°C 60.8°F16.0°C 97% 2.0 mph S3.2 kmh S -- 30.40 in1029.5 mb 0.00 in0.0 mm 0.00 in0.0 mm 0.40 in10.2 mm
05:56 PM 61.6°F16.4°C 60.7°F15.9°C 97% 2.0 mph S3.2 kmh S -- 30.40 in1029.5 mb 0.00 in0.0 mm 0.00 in0.0 mm 0.40 in10.2 mm
06:01 PM 61.7°F16.5°C 60.8°F16.0°C 97% 2.0 mph S3.2 kmh S -- 30.41 in1029.8 mb 0.00 in0.0 mm 0.00 in0.0 mm 0.40 in10.2 mm
06:06 PM 61.6°F16.4°C 60.7°F15.9°C 97% 2.0 mph S3.2 kmh S -- 30.41 in1029.8 mb 0.00 in0.0 mm 0.00 in0.0 mm 0.40 in10.2 mm
06:11 PM 61.7°F16.5°C 60.8°F16.0°C 97% Calm Calm -- 30.41 in1029.8 mb 0.00 in0.0 mm 0.00 in0.0 mm 0.40 in10.2 mm
06:16 PM 61.6°F16.4°C 60.7°F15.9°C 97% Calm Calm -- 30.42 in1030.1 mb 0.00 in0.0 mm 0.00 in0.0 mm 0.40 in10.2 mm
06:21 PM 61.6°F16.4°C 60.7°F15.9°C 97% 1.0 mph S1.6 kmh S -- 30.42 in1030.1 mb 0.00 in0.0 mm 0.00 in0.0 mm 0.40 in10.2 mm
06:26 PM 61.6°F16.4°C 60.7°F15.9°C 97% 2.0 mph S3.2 kmh S -- 30.42 in1030.1 mb 0.00 in0.0 mm 0.00 in0.0 mm 0.40 in10.2 mm
06:31 PM 61.6°F16.4°C 60.7°F15.9°C 97% 2.0 mph W3.2 kmh W -- 30.41 in1029.8 mb 0.00 in0.0 mm 0.00 in0.0 mm 0.40 in10.2 mm
06:36 PM 61.7°F16.5°C 60.8°F16.0°C 97% Calm Calm -- 30.42 in1030.1 mb 0.00 in0.0 mm 0.00 in0.0 mm 0.40 in10.2 mm
06:41 PM 61.7°F16.5°C 60.8°F16.0°C 97% Calm Calm -- 30.41 in1029.8 mb 0.00 in0.0 mm 0.00 in0.0 mm 0.40 in10.2 mm
06:46 PM 61.6°F16.4°C 60.7°F15.9°C 97% 1.0 mph S1.6 kmh S -- 30.41 in1029.8 mb 0.00 in0.0 mm 0.00 in0.0 mm 0.40 in10.2 mm
06:51 PM 61.7°F16.5°C 60.8°F16.0°C 97% Calm Calm -- 30.42 in1030.1 mb 0.00 in0.0 mm 0.00 in0.0 mm 0.40 in10.2 mm
06:56 PM 61.7°F16.5°C 60.8°F16.0°C 97% Calm Calm -- 30.42 in1030.1 mb 0.00 in0.0 mm 0.00 in0.0 mm 0.40 in10.2 mm
07:01 PM 61.6°F16.4°C 60.7°F15.9°C 97% 2.0 mph S3.2 kmh S -- 30.42 in1030.1 mb 0.00 in0.0 mm 0.00 in0.0 mm 0.40 in10.2 mm
07:06 PM 61.6°F16.4°C 60.7°F15.9°C 97% Calm Calm -- 30.42 in1030.1 mb 0.00 in0.0 mm 0.00 in0.0 mm 0.40 in10.2 mm
07:11 PM 61.6°F16.4°C 60.7°F15.9°C 97% 1.0 mph S1.6 kmh S -- 30.42 in1030.1 mb 0.00 in0.0 mm 0.00 in0.0 mm 0.40 in10.2 mm
07:16 PM 61.7°F16.5°C 60.8°F16.0°C 97% 1.0 mph S1.6 kmh S -- 30.42 in1030.1 mb 0.00 in0.0 mm 0.00 in0.0 mm 0.40 in10.2 mm
07:21 PM 61.7°F16.5°C 60.8°F16.0°C 97% 2.0 mph S3.2 kmh S -- 30.42 in1030.1 mb 0.00 in0.0 mm 0.00 in0.0 mm 0.40 in10.2 mm
07:26 PM 61.7°F16.5°C 60.8°F16.0°C 97% Calm Calm -- 30.42 in1030.1 mb 0.00 in0.0 mm 0.00 in0.0 mm 0.40 in10.2 mm
07:31 PM 61.7°F16.5°C 60.8°F16.0°C 97% 2.0 mph SW3.2 kmh SW -- 30.42 in1030.1 mb 0.00 in0.0 mm 0.00 in0.0 mm 0.40 in10.2 mm
07:36 PM 61.6°F16.4°C 60.9°F16.1°C 98% Calm Calm -- 30.43 in1030.5 mb 0.00 in0.0 mm 0.00 in0.0 mm 0.40 in10.2 mm
07:41 PM 61.7°F16.5°C 61.1°F16.2°C 98% 4.0 mph S6.4 kmh S -- 30.43 in1030.5 mb 0.00 in0.0 mm 0.00 in0.0 mm 0.40 in10.2 mm
07:46 PM 61.8°F16.6°C 61.3°F16.3°C 98% 2.0 mph S3.2 kmh S -- 30.42 in1030.1 mb 0.00 in0.0 mm 0.00 in0.0 mm 0.40 in10.2 mm
07:51 PM 61.8°F16.6°C 61.3°F16.3°C 98% 2.0 mph S3.2 kmh S -- 30.42 in1030.1 mb 0.00 in0.0 mm 0.00 in0.0 mm 0.40 in10.2 mm
07:56 PM 61.7°F16.5°C 61.1°F16.2°C 98% 2.0 mph S3.2 kmh S -- 30.42 in1030.1 mb 0.00 in0.0 mm 0.00 in0.0 mm 0.40 in10.2 mm
08:01 PM 61.8°F16.6°C 61.3°F16.3°C 98% 3.0 mph SSE4.8 kmh SSE -- 30.42 in1030.1 mb 0.00 in0.0 mm 0.00 in0.0 mm 0.40 in10.2 mm
08:06 PM 61.8°F16.6°C 61.3°F16.3°C 98% 1.0 mph S1.6 kmh S -- 30.41 in1029.8 mb 0.00 in0.0 mm 0.00 in0.0 mm 0.40 in10.2 mm
08:11 PM 61.9°F16.6°C 61.3°F16.3°C 98% Calm Calm -- 30.41 in1029.8 mb 0.00 in0.0 mm 0.00 in0.0 mm 0.40 in10.2 mm
08:16 PM 61.8°F16.6°C 61.3°F16.3°C 98% 3.0 mph S4.8 kmh S -- 30.41 in1029.8 mb 0.00 in0.0 mm 0.00 in0.0 mm 0.40 in10.2 mm
08:21 PM 61.8°F16.6°C 61.3°F16.3°C 98% Calm Calm -- 30.42 in1030.1 mb 0.00 in0.0 mm 0.00 in0.0 mm 0.40 in10.2 mm
08:26 PM 61.7°F16.5°C 61.1°F16.2°C 98% Calm Calm -- 30.42 in1030.1 mb 0.00 in0.0 mm 0.00 in0.0 mm 0.40 in10.2 mm
08:31 PM 61.8°F16.6°C 61.3°F16.3°C 98% Calm Calm -- 30.42 in1030.1 mb 0.00 in0.0 mm 0.00 in0.0 mm 0.40 in10.2 mm
08:36 PM 61.7°F16.5°C 61.1°F16.2°C 98% 3.0 mph WSW4.8 kmh WSW -- 30.41 in1029.8 mb 0.00 in0.0 mm 0.00 in0.0 mm 0.40 in10.2 mm
08:41 PM 61.8°F16.6°C 61.3°F16.3°C 98% 1.0 mph S1.6 kmh S -- 30.42 in1030.1 mb 0.00 in0.0 mm 0.00 in0.0 mm 0.40 in10.2 mm
08:46 PM 61.8°F16.6°C 61.3°F16.3°C 98% 2.0 mph S3.2 kmh S -- 30.42 in1030.1 mb 0.00 in0.0 mm 0.00 in0.0 mm 0.40 in10.2 mm
08:51 PM 61.9°F16.6°C 61.3°F16.3°C 98% 1.0 mph S1.6 kmh S -- 30.41 in1029.8 mb 0.00 in0.0 mm 0.00 in0.0 mm 0.40 in10.2 mm
08:56 PM 61.9°F16.6°C 61.3°F16.3°C 98% 3.0 mph S4.8 kmh S -- 30.41 in1029.8 mb 0.00 in0.0 mm 0.00 in0.0 mm 0.40 in10.2 mm
09:01 PM 61.8°F16.6°C 61.3°F16.3°C 98% Calm Calm -- 30.41 in1029.8 mb 0.00 in0.0 mm 0.00 in0.0 mm 0.40 in10.2 mm
09:06 PM 61.8°F16.6°C 61.3°F16.3°C 98% Calm Calm -- 30.41 in1029.8 mb 0.00 in0.0 mm 0.00 in0.0 mm 0.40 in10.2 mm
09:11 PM 61.7°F16.5°C 61.1°F16.2°C 98% Calm Calm -- 30.41 in1029.8 mb 0.00 in0.0 mm 0.00 in0.0 mm 0.40 in10.2 mm
09:16 PM 61.7°F16.5°C 61.1°F16.2°C 98% 1.0 mph S1.6 kmh S -- 30.41 in1029.8 mb 0.00 in0.0 mm 0.00 in0.0 mm 0.40 in10.2 mm
09:21 PM 61.7°F16.5°C 61.1°F16.2°C 98% Calm Calm -- 30.41 in1029.8 mb 0.00 in0.0 mm 0.00 in0.0 mm 0.40 in10.2 mm
09:26 PM 61.9°F16.6°C 61.3°F16.3°C 98% Calm Calm -- 30.41 in1029.8 mb 0.00 in0.0 mm 0.00 in0.0 mm 0.40 in10.2 mm
09:31 PM 61.9°F16.6°C 61.3°F16.3°C 98% Calm Calm -- 30.41 in1029.8 mb 0.00 in0.0 mm 0.00 in0.0 mm 0.40 in10.2 mm
09:36 PM 61.9°F16.6°C 61.3°F16.3°C 98% Calm Calm -- 30.41 in1029.8 mb 0.00 in0.0 mm 0.00 in0.0 mm 0.40 in10.2 mm
09:41 PM 61.9°F16.6°C 61.3°F16.3°C 98% 2.0 mph SSE3.2 kmh SSE -- 30.41 in1029.8 mb 0.00 in0.0 mm 0.00 in0.0 mm 0.40 in10.2 mm
09:46 PM 62.0°F16.7°C 61.5°F16.4°C 98% 2.0 mph S3.2 kmh S -- 30.40 in1029.5 mb 0.00 in0.0 mm 0.00 in0.0 mm 0.40 in10.2 mm
09:51 PM 62.1°F16.7°C 61.5°F16.4°C 98% 2.0 mph S3.2 kmh S -- 30.40 in1029.5 mb 0.00 in0.0 mm 0.00 in0.0 mm 0.40 in10.2 mm
09:56 PM 62.0°F16.7°C 61.5°F16.4°C 98% 2.0 mph SE3.2 kmh SE -- 30.41 in1029.8 mb 0.00 in0.0 mm 0.00 in0.0 mm 0.40 in10.2 mm
10:01 PM 62.1°F16.7°C 61.5°F16.4°C 98% 1.0 mph SSW1.6 kmh SSW -- 30.40 in1029.5 mb 0.01 in0.3 mm 0.01 in0.3 mm 0.41 in10.4 mm
10:06 PM 62.2°F16.8°C 61.7°F16.5°C 98% Calm Calm -- 30.40 in1029.5 mb 0.01 in0.3 mm 0.00 in0.0 mm 0.41 in10.4 mm
10:11 PM 62.1°F16.7°C 61.5°F16.4°C 98% Calm Calm -- 30.40 in1029.5 mb 0.01 in0.3 mm 0.00 in0.0 mm 0.41 in10.4 mm
10:16 PM 62.0°F16.7°C 61.5°F16.4°C 98% Calm Calm -- 30.40 in1029.5 mb 0.01 in0.3 mm 0.00 in0.0 mm 0.41 in10.4 mm
10:21 PM 62.1°F16.7°C 61.5°F16.4°C 98% Calm Calm -- 30.40 in1029.5 mb 0.01 in0.3 mm 0.00 in0.0 mm 0.41 in10.4 mm
10:26 PM 62.1°F16.7°C 61.5°F16.4°C 98% Calm Calm -- 30.40 in1029.5 mb 0.01 in0.3 mm 0.00 in0.0 mm 0.41 in10.4 mm
10:31 PM 62.0°F16.7°C 61.5°F16.4°C 98% Calm Calm -- 30.40 in1029.5 mb 0.02 in0.5 mm 0.12 in3.0 mm 0.42 in10.7 mm
10:36 PM 62.0°F16.7°C 61.5°F16.4°C 98% Calm Calm -- 30.40 in1029.5 mb 0.02 in0.5 mm 0.00 in0.0 mm 0.42 in10.7 mm
10:41 PM 62.0°F16.7°C 61.5°F16.4°C 98% Calm Calm -- 30.40 in1029.5 mb 0.03 in0.8 mm 0.12 in3.0 mm 0.43 in10.9 mm
10:46 PM 61.9°F16.6°C 61.3°F16.3°C 98% Calm Calm -- 30.40 in1029.5 mb 0.03 in0.8 mm 0.00 in0.0 mm 0.43 in10.9 mm
10:51 PM 62.0°F16.7°C 61.5°F16.4°C 98% 1.0 mph SSW1.6 kmh SSW -- 30.40 in1029.5 mb 0.03 in0.8 mm 0.00 in0.0 mm 0.43 in10.9 mm
10:56 PM 62.0°F16.7°C 61.5°F16.4°C 98% 2.0 mph S3.2 kmh S -- 30.40 in1029.5 mb 0.03 in0.8 mm 0.00 in0.0 mm 0.43 in10.9 mm
11:01 PM 62.1°F16.7°C 61.8°F16.6°C 99% 1.0 mph S1.6 kmh S -- 30.40 in1029.5 mb 0.02 in0.5 mm 0.00 in0.0 mm 0.43 in10.9 mm
11:06 PM 62.1°F16.7°C 61.5°F16.4°C 98% Calm Calm -- 30.40 in1029.5 mb 0.02 in0.5 mm 0.00 in0.0 mm 0.43 in10.9 mm
11:11 PM 62.0°F16.7°C 61.8°F16.6°C 99% Calm Calm -- 30.40 in1029.5 mb 0.02 in0.5 mm 0.00 in0.0 mm 0.43 in10.9 mm
11:16 PM 62.0°F16.7°C 61.5°F16.4°C 98% Calm Calm -- 30.40 in1029.5 mb 0.02 in0.5 mm 0.00 in0.0 mm 0.43 in10.9 mm
11:21 PM 62.0°F16.7°C 61.5°F16.4°C 98% 1.0 mph S1.6 kmh S -- 30.39 in1029.1 mb 0.02 in0.5 mm 0.00 in0.0 mm 0.43 in10.9 mm
11:26 PM 62.0°F16.7°C 61.8°F16.6°C 99% 2.0 mph SSE3.2 kmh SSE -- 30.39 in1029.1 mb 0.01 in0.3 mm 0.00 in0.0 mm 0.43 in10.9 mm
11:31 PM 62.0°F16.7°C 61.8°F16.6°C 99% Calm Calm -- 30.39 in1029.1 mb 0.01 in0.3 mm 0.00 in0.0 mm 0.43 in10.9 mm
11:36 PM 62.0°F16.7°C 61.8°F16.6°C 99% 2.0 mph SSW3.2 kmh SSW -- 30.39 in1029.1 mb 0.00 in0.0 mm 0.00 in0.0 mm 0.43 in10.9 mm
11:41 PM 62.0°F16.7°C 61.8°F16.6°C 99% 1.0 mph SW1.6 kmh SW -- 30.39 in1029.1 mb 0.00 in0.0 mm 0.00 in0.0 mm 0.43 in10.9 mm
11:46 PM 62.0°F16.7°C 61.8°F16.6°C 99% Calm Calm -- 30.39 in1029.1 mb 0.00 in0.0 mm 0.00 in0.0 mm 0.43 in10.9 mm
11:51 PM 62.0°F16.7°C 61.8°F16.6°C 99% Calm Calm -- 30.39 in1029.1 mb 0.00 in0.0 mm 0.00 in0.0 mm 0.41 in10.4 mm
11:56 PM 62.0°F16.7°C 61.8°F16.6°C 99% Calm Calm -- 30.38 in1028.8 mb 0.00 in0.0 mm 0.00 in0.0 mm 0.41 in10.4 mm